sensor_id;sensor_type;location;lat;lon;timestamp;temperature;humidity
11762;DHT22;5938;47.098;15.474;2023-04-02T00:01:35;6.60;99.90
11762;DHT22;5938;47.098;15.474;2023-04-02T00:05:44;6.60;99.90
11762;DHT22;5938;47.098;15.474;2023-04-02T00:09:57;6.60;99.90
11762;DHT22;5938;47.098;15.474;2023-04-02T00:14:02;6.50;99.90
11762;DHT22;5938;47.098;15.474;2023-04-02T00:18:06;6.50;99.90
11762;DHT22;5938;47.098;15.474;2023-04-02T00:22:16;6.40;99.90
11762;DHT22;5938;47.098;15.474;2023-04-02T00:26:33;6.30;99.90
11762;DHT22;5938;47.098;15.474;2023-04-02T00:30:37;6.30;99.90
11762;DHT22;5938;47.098;15.474;2023-04-02T00:34:47;6.30;99.90
11762;DHT22;5938;47.098;15.474;2023-04-02T00:38:52;6.30;99.90
11762;DHT22;5938;47.098;15.474;2023-04-02T00:42:59;6.20;99.90
11762;DHT22;5938;47.098;15.474;2023-04-02T00:47:11;6.20;99.90
11762;DHT22;5938;47.098;15.474;2023-04-02T00:51:20;6.30;99.90
11762;DHT22;5938;47.098;15.474;2023-04-02T00:55:26;6.20;99.90
11762;DHT22;5938;47.098;15.474;2023-04-02T00:59:35;6.20;99.90
11762;DHT22;5938;47.098;15.474;2023-04-02T01:03:52;6.20;99.90
11762;DHT22;5938;47.098;15.474;2023-04-02T01:08:03;6.20;99.90
11762;DHT22;5938;47.098;15.474;2023-04-02T01:12:23;6.20;99.90
11762;DHT22;5938;47.098;15.474;2023-04-02T01:16:42;6.40;99.90
11762;DHT22;5938;47.098;15.474;2023-04-02T01:21:14;6.30;99.90
11762;DHT22;5938;47.098;15.474;2023-04-02T01:25:26;6.40;99.90
11762;DHT22;5938;47.098;15.474;2023-04-02T01:29:35;6.40;99.90
11762;DHT22;5938;47.098;15.474;2023-04-02T01:33:40;6.30;99.90
11762;DHT22;5938;47.098;15.474;2023-04-02T01:37:49;6.30;99.90
11762;DHT22;5938;47.098;15.474;2023-04-02T01:42:00;6.30;99.90
11762;DHT22;5938;47.098;15.474;2023-04-02T01:46:25;6.30;99.90
11762;DHT22;5938;47.098;15.474;2023-04-02T01:50:32;6.30;99.90
11762;DHT22;5938;47.098;15.474;2023-04-02T01:54:38;6.30;99.90
11762;DHT22;5938;47.098;15.474;2023-04-02T01:58:42;6.20;99.90
11762;DHT22;5938;47.098;15.474;2023-04-02T02:02:48;6.10;99.90
11762;DHT22;5938;47.098;15.474;2023-04-02T02:06:52;6.00;99.90
11762;DHT22;5938;47.098;15.474;2023-04-02T02:10:58;6.00;99.90
11762;DHT22;5938;47.098;15.474;2023-04-02T02:15:02;5.90;99.90
11762;DHT22;5938;47.098;15.474;2023-04-02T02:19:18;5.70;99.90
11762;DHT22;5938;47.098;15.474;2023-04-02T02:23:22;5.60;99.90
11762;DHT22;5938;47.098;15.474;2023-04-02T02:27:45;5.40;99.90
11762;DHT22;5938;47.098;15.474;2023-04-02T02:31:51;5.40;99.90
11762;DHT22;5938;47.098;15.474;2023-04-02T02:35:58;5.20;99.90
11762;DHT22;5938;47.098;15.474;2023-04-02T02:40:06;5.10;99.90
11762;DHT22;5938;47.098;15.474;2023-04-02T02:44:16;5.00;99.90
11762;DHT22;5938;47.098;15.474;2023-04-02T02:48:25;4.90;99.90
11762;DHT22;5938;47.098;15.474;2023-04-02T02:52:34;4.80;99.90
11762;DHT22;5938;47.098;15.474;2023-04-02T02:56:42;4.60;99.90
11762;DHT22;5938;47.098;15.474;2023-04-02T03:00:48;4.40;99.90
11762;DHT22;5938;47.098;15.474;2023-04-02T03:04:53;4.50;99.90
11762;DHT22;5938;47.098;15.474;2023-04-02T03:09:02;4.40;99.90
11762;DHT22;5938;47.098;15.474;2023-04-02T03:13:14;4.30;99.90
11762;DHT22;5938;47.098;15.474;2023-04-02T03:17:28;4.30;99.90
11762;DHT22;5938;47.098;15.474;2023-04-02T03:21:37;4.20;99.90
11762;DHT22;5938;47.098;15.474;2023-04-02T03:25:49;4.30;99.90
11762;DHT22;5938;47.098;15.474;2023-04-02T03:30:03;4.20;99.90
11762;DHT22;5938;47.098;15.474;2023-04-02T03:34:12;4.20;99.90
11762;DHT22;5938;47.098;15.474;2023-04-02T03:38:20;4.20;99.90
11762;DHT22;5938;47.098;15.474;2023-04-02T03:42:28;4.10;99.90
11762;DHT22;5938;47.098;15.474;2023-04-02T03:46:36;4.20;99.90
11762;DHT22;5938;47.098;15.474;2023-04-02T03:50:43;4.20;99.90
11762;DHT22;5938;47.098;15.474;2023-04-02T03:54:48;4.10;99.90
11762;DHT22;5938;47.098;15.474;2023-04-02T03:59:06;4.30;99.90
11762;DHT22;5938;47.098;15.474;2023-04-02T04:03:15;4.30;99.90
11762;DHT22;5938;47.098;15.474;2023-04-02T04:07:28;4.40;99.90
11762;DHT22;5938;47.098;15.474;2023-04-02T04:11:35;4.30;99.90
11762;DHT22;5938;47.098;15.474;2023-04-02T04:15:46;4.30;99.90
11762;DHT22;5938;47.098;15.474;2023-04-02T04:19:53;4.30;99.90
11762;DHT22;5938;47.098;15.474;2023-04-02T04:24:02;4.30;99.90
11762;DHT22;5938;47.098;15.474;2023-04-02T04:28:14;4.30;99.90
11762;DHT22;5938;47.098;15.474;2023-04-02T04:32:26;4.40;99.90
11762;DHT22;5938;47.098;15.474;2023-04-02T04:36:40;4.40;99.90
11762;DHT22;5938;47.098;15.474;2023-04-02T04:40:58;4.40;99.90
11762;DHT22;5938;47.098;15.474;2023-04-02T04:45:12;4.50;99.90
11762;DHT22;5938;47.098;15.474;2023-04-02T04:49:21;4.50;99.90
11762;DHT22;5938;47.098;15.474;2023-04-02T04:53:28;4.60;99.90
11762;DHT22;5938;47.098;15.474;2023-04-02T04:57:34;4.60;99.90
11762;DHT22;5938;47.098;15.474;2023-04-02T05:01:41;4.70;99.90
11762;DHT22;5938;47.098;15.474;2023-04-02T05:05:49;4.60;99.90
11762;DHT22;5938;47.098;15.474;2023-04-02T05:09:56;4.70;99.90
11762;DHT22;5938;47.098;15.474;2023-04-02T05:14:05;4.70;99.90
11762;DHT22;5938;47.098;15.474;2023-04-02T05:18:18;4.80;99.90
11762;DHT22;5938;47.098;15.474;2023-04-02T05:22:29;4.90;99.90
11762;DHT22;5938;47.098;15.474;2023-04-02T05:26:44;5.00;99.90
11762;DHT22;5938;47.098;15.474;2023-04-02T05:30:51;5.10;99.90
11762;DHT22;5938;47.098;15.474;2023-04-02T05:34:56;5.20;99.90
11762;DHT22;5938;47.098;15.474;2023-04-02T05:39:02;5.40;99.90
11762;DHT22;5938;47.098;15.474;2023-04-02T05:43:15;5.40;99.90
11762;DHT22;5938;47.098;15.474;2023-04-02T05:47:21;5.60;99.90
11762;DHT22;5938;47.098;15.474;2023-04-02T05:51:30;5.70;99.90
11762;DHT22;5938;47.098;15.474;2023-04-02T05:55:49;5.90;99.90
11762;DHT22;5938;47.098;15.474;2023-04-02T05:59:57;6.10;99.90
11762;DHT22;5938;47.098;15.474;2023-04-02T06:04:09;6.20;99.90
11762;DHT22;5938;47.098;15.474;2023-04-02T06:08:17;6.40;99.90
11762;DHT22;5938;47.098;15.474;2023-04-02T06:12:27;6.50;99.90
11762;DHT22;5938;47.098;15.474;2023-04-02T06:16:33;6.60;99.90
11762;DHT22;5938;47.098;15.474;2023-04-02T06:20:38;6.80;99.90
11762;DHT22;5938;47.098;15.474;2023-04-02T06:24:43;7.00;99.90
11762;DHT22;5938;47.098;15.474;2023-04-02T06:28:52;7.10;99.90
11762;DHT22;5938;47.098;15.474;2023-04-02T06:32:58;7.40;99.90
11762;DHT22;5938;47.098;15.474;2023-04-02T06:37:04;7.60;99.90
11762;DHT22;5938;47.098;15.474;2023-04-02T06:41:18;7.80;99.90
11762;DHT22;5938;47.098;15.474;2023-04-02T06:45:27;8.10;99.90
11762;DHT22;5938;47.098;15.474;2023-04-02T06:49:35;8.30;99.90
11762;DHT22;5938;47.098;15.474;2023-04-02T06:53:43;8.50;99.90
11762;DHT22;5938;47.098;15.474;2023-04-02T06:57:47;8.90;99.90
11762;DHT22;5938;47.098;15.474;2023-04-02T07:01:55;9.30;99.90
11762;DHT22;5938;47.098;15.474;2023-04-02T07:06:01;9.70;99.90
11762;DHT22;5938;47.098;15.474;2023-04-02T07:10:07;10.00;99.90
11762;DHT22;5938;47.098;15.474;2023-04-02T07:14:11;10.40;99.90
11762;DHT22;5938;47.098;15.474;2023-04-02T07:18:27;10.50;99.80
11762;DHT22;5938;47.098;15.474;2023-04-02T07:22:31;10.70;99.40
11762;DHT22;5938;47.098;15.474;2023-04-02T07:26:35;10.90;98.90
11762;DHT22;5938;47.098;15.474;2023-04-02T07:30:38;11.10;97.80
11762;DHT22;5938;47.098;15.474;2023-04-02T07:34:43;11.30;98.10
11762;DHT22;5938;47.098;15.474;2023-04-02T07:38:47;11.50;97.10
11762;DHT22;5938;47.098;15.474;2023-04-02T07:42:51;11.70;97.20
11762;DHT22;5938;47.098;15.474;2023-04-02T07:46:54;11.80;96.20
11762;DHT22;5938;47.098;15.474;2023-04-02T07:50:59;11.60;96.10
11762;DHT22;5938;47.098;15.474;2023-04-02T07:55:05;11.50;96.00
11762;DHT22;5938;47.098;15.474;2023-04-02T07:59:09;11.50;96.00
11762;DHT22;5938;47.098;15.474;2023-04-02T08:03:12;11.60;96.10
11762;DHT22;5938;47.098;15.474;2023-04-02T08:07:18;12.10;94.70
11762;DHT22;5938;47.098;15.474;2023-04-02T08:11:23;12.30;95.40
11762;DHT22;5938;47.098;15.474;2023-04-02T08:15:26;12.40;94.00
11762;DHT22;5938;47.098;15.474;2023-04-02T08:19:29;12.80;94.10
11762;DHT22;5938;47.098;15.474;2023-04-02T08:23:46;13.20;93.50
11762;DHT22;5938;47.098;15.474;2023-04-02T08:27:50;13.60;92.90
11762;DHT22;5938;47.098;15.474;2023-04-02T08:31:53;13.60;91.50
11762;DHT22;5938;47.098;15.474;2023-04-02T08:35:56;13.40;91.60
11762;DHT22;5938;47.098;15.474;2023-04-02T08:40:01;13.40;92.50
11762;DHT22;5938;47.098;15.474;2023-04-02T08:48:31;13.40;90.90
11762;DHT22;5938;47.098;15.474;2023-04-02T08:52:37;13.20;90.20
11762;DHT22;5938;47.098;15.474;2023-04-02T08:56:50;13.50;90.50
11762;DHT22;5938;47.098;15.474;2023-04-02T09:00:55;13.90;90.00
11762;DHT22;5938;47.098;15.474;2023-04-02T09:05:02;14.20;90.20
11762;DHT22;5938;47.098;15.474;2023-04-02T09:09:07;14.80;90.10
11762;DHT22;5938;47.098;15.474;2023-04-02T09:13:17;15.20;87.40
11762;DHT22;5938;47.098;15.474;2023-04-02T09:17:25;15.60;85.30
11762;DHT22;5938;47.098;15.474;2023-04-02T09:21:35;15.50;87.70
11762;DHT22;5938;47.098;15.474;2023-04-02T09:25:43;16.40;86.60
11762;DHT22;5938;47.098;15.474;2023-04-02T09:30:14;16.50;82.60
11762;DHT22;5938;47.098;15.474;2023-04-02T09:34:28;16.40;81.70
11762;DHT22;5938;47.098;15.474;2023-04-02T09:38:32;16.30;81.40
11762;DHT22;5938;47.098;15.474;2023-04-02T09:42:36;16.90;81.80
11762;DHT22;5938;47.098;15.474;2023-04-02T09:46:50;17.80;81.10
11762;DHT22;5938;47.098;15.474;2023-04-02T09:51:04;18.40;80.10
11762;DHT22;5938;47.098;15.474;2023-04-02T09:55:20;17.90;80.00
11762;DHT22;5938;47.098;15.474;2023-04-02T09:59:25;17.80;79.70
11762;DHT22;5938;47.098;15.474;2023-04-02T10:03:31;17.70;79.40
11762;DHT22;5938;47.098;15.474;2023-04-02T10:07:37;18.10;78.10
11762;DHT22;5938;47.098;15.474;2023-04-02T10:11:42;17.90;79.60
11762;DHT22;5938;47.098;15.474;2023-04-02T10:15:50;18.50;75.10
11762;DHT22;5938;47.098;15.474;2023-04-02T10:20:00;19.00;76.60
11762;DHT22;5938;47.098;15.474;2023-04-02T10:24:10;19.50;70.60
11762;DHT22;5938;47.098;15.474;2023-04-02T10:28:26;21.30;68.10
11762;DHT22;5938;47.098;15.474;2023-04-02T10:32:34;21.40;68.00
11762;DHT22;5938;47.098;15.474;2023-04-02T10:36:48;23.60;65.20
11762;DHT22;5938;47.098;15.474;2023-04-02T10:40:59;22.60;63.70
11762;DHT22;5938;47.098;15.474;2023-04-02T10:45:15;23.90;63.60
11762;DHT22;5938;47.098;15.474;2023-04-02T10:49:29;25.00;66.80
11762;DHT22;5938;47.098;15.474;2023-04-02T10:53:40;25.10;60.80
11762;DHT22;5938;47.098;15.474;2023-04-02T10:57:45;24.70;60.00
11762;DHT22;5938;47.098;15.474;2023-04-02T11:01:50;22.70;62.50
11762;DHT22;5938;47.098;15.474;2023-04-02T11:05:57;21.70;64.90
11762;DHT22;5938;47.098;15.474;2023-04-02T11:10:03;20.20;68.20
11762;DHT22;5938;47.098;15.474;2023-04-02T11:14:12;19.10;70.10
11762;DHT22;5938;47.098;15.474;2023-04-02T11:18:27;18.40;70.80
11762;DHT22;5938;47.098;15.474;2023-04-02T11:22:35;17.70;72.60
11762;DHT22;5938;47.098;15.474;2023-04-02T11:26:40;17.40;75.40
11762;DHT22;5938;47.098;15.474;2023-04-02T11:30:47;17.30;74.60
11762;DHT22;5938;47.098;15.474;2023-04-02T11:35:26;17.40;75.10
11762;DHT22;5938;47.098;15.474;2023-04-02T11:39:50;17.60;74.10
11762;DHT22;5938;47.098;15.474;2023-04-02T11:44:04;18.10;70.00
11762;DHT22;5938;47.098;15.474;2023-04-02T11:48:32;18.40;69.80
11762;DHT22;5938;47.098;15.474;2023-04-02T11:52:49;19.20;70.00
11762;DHT22;5938;47.098;15.474;2023-04-02T11:56:59;19.70;70.70
11762;DHT22;5938;47.098;15.474;2023-04-02T12:01:37;20.90;66.40
11762;DHT22;5938;47.098;15.474;2023-04-02T12:05:49;20.00;66.50
11762;DHT22;5938;47.098;15.474;2023-04-02T12:09:57;18.50;68.20
11762;DHT22;5938;47.098;15.474;2023-04-02T12:18:26;17.70;69.70
11762;DHT22;5938;47.098;15.474;2023-04-02T12:22:31;17.50;68.70
11762;DHT22;5938;47.098;15.474;2023-04-02T12:26:36;17.20;71.40
11762;DHT22;5938;47.098;15.474;2023-04-02T12:30:40;17.50;70.10
11762;DHT22;5938;47.098;15.474;2023-04-02T12:34:45;18.10;69.10
11762;DHT22;5938;47.098;15.474;2023-04-02T12:38:50;19.10;69.00
11762;DHT22;5938;47.098;15.474;2023-04-02T12:42:55;19.90;64.60
11762;DHT22;5938;47.098;15.474;2023-04-02T12:46:58;18.90;66.40
11762;DHT22;5938;47.098;15.474;2023-04-02T12:51:04;18.50;68.00
11762;DHT22;5938;47.098;15.474;2023-04-02T12:55:16;18.40;69.50
11762;DHT22;5938;47.098;15.474;2023-04-02T12:59:30;18.20;67.60
11762;DHT22;5938;47.098;15.474;2023-04-02T13:03:36;18.20;69.30
11762;DHT22;5938;47.098;15.474;2023-04-02T13:07:46;18.50;67.90
11762;DHT22;5938;47.098;15.474;2023-04-02T13:11:50;19.30;67.70
11762;DHT22;5938;47.098;15.474;2023-04-02T13:16:02;18.00;71.60
11762;DHT22;5938;47.098;15.474;2023-04-02T13:20:29;16.60;73.60
11762;DHT22;5938;47.098;15.474;2023-04-02T13:24:35;15.70;78.90
11762;DHT22;5938;47.098;15.474;2023-04-02T13:28:39;14.80;80.90
11762;DHT22;5938;47.098;15.474;2023-04-02T13:32:44;14.50;81.60
11762;DHT22;5938;47.098;15.474;2023-04-02T13:36:47;14.80;83.90
11762;DHT22;5938;47.098;15.474;2023-04-02T13:40:52;15.10;79.70
11762;DHT22;5938;47.098;15.474;2023-04-02T13:44:56;15.50;78.30
11762;DHT22;5938;47.098;15.474;2023-04-02T13:49:00;16.10;77.80
11762;DHT22;5938;47.098;15.474;2023-04-02T13:53:06;16.60;75.40
11762;DHT22;5938;47.098;15.474;2023-04-02T13:57:13;16.70;74.90
11762;DHT22;5938;47.098;15.474;2023-04-02T14:01:18;16.50;73.10
11762;DHT22;5938;47.098;15.474;2023-04-02T14:05:32;16.20;74.20
11762;DHT22;5938;47.098;15.474;2023-04-02T14:09:48;16.10;75.40
11762;DHT22;5938;47.098;15.474;2023-04-02T14:14:18;16.00;74.90
11762;DHT22;5938;47.098;15.474;2023-04-02T14:18:37;15.70;76.10
11762;DHT22;5938;47.098;15.474;2023-04-02T14:22:59;15.70;75.40
11762;DHT22;5938;47.098;15.474;2023-04-02T14:27:20;15.10;76.50
11762;DHT22;5938;47.098;15.474;2023-04-02T14:31:31;15.10;77.00
11762;DHT22;5938;47.098;15.474;2023-04-02T14:35:41;15.30;78.80
11762;DHT22;5938;47.098;15.474;2023-04-02T14:39:54;15.30;78.10
11762;DHT22;5938;47.098;15.474;2023-04-02T14:44:03;15.10;77.00
11762;DHT22;5938;47.098;15.474;2023-04-02T14:48:19;15.10;76.00
11762;DHT22;5938;47.098;15.474;2023-04-02T14:52:31;15.60;74.50
11762;DHT22;5938;47.098;15.474;2023-04-02T14:56:38;16.30;73.90
11762;DHT22;5938;47.098;15.474;2023-04-02T15:00:51;16.00;73.90
11762;DHT22;5938;47.098;15.474;2023-04-02T15:05:03;15.50;75.00
11762;DHT22;5938;47.098;15.474;2023-04-02T15:09:12;15.00;76.90
11762;DHT22;5938;47.098;15.474;2023-04-02T15:13:21;15.00;76.90
11762;DHT22;5938;47.098;15.474;2023-04-02T15:17:27;14.90;76.80
11762;DHT22;5938;47.098;15.474;2023-04-02T15:22:06;14.80;77.80
11762;DHT22;5938;47.098;15.474;2023-04-02T15:26:20;14.80;77.40
11762;DHT22;5938;47.098;15.474;2023-04-02T15:30:29;14.60;78.70
11762;DHT22;5938;47.098;15.474;2023-04-02T15:34:42;14.40;76.30
11762;DHT22;5938;47.098;15.474;2023-04-02T15:38:53;14.40;79.90
11762;DHT22;5938;47.098;15.474;2023-04-02T15:43:09;14.30;77.50
11762;DHT22;5938;47.098;15.474;2023-04-02T15:47:24;14.00;79.10
11762;DHT22;5938;47.098;15.474;2023-04-02T15:51:50;13.80;78.20
11762;DHT22;5938;47.098;15.474;2023-04-02T15:56:11;13.70;78.90
11762;DHT22;5938;47.098;15.474;2023-04-02T16:00:24;13.50;79.30
11762;DHT22;5938;47.098;15.474;2023-04-02T16:04:44;13.60;80.00
11762;DHT22;5938;47.098;15.474;2023-04-02T16:09:06;13.50;80.00
11762;DHT22;5938;47.098;15.474;2023-04-02T16:13:25;13.40;80.60
11762;DHT22;5938;47.098;15.474;2023-04-02T16:17:38;13.40;80.60
11762;DHT22;5938;47.098;15.474;2023-04-02T16:21:48;13.40;80.60
11762;DHT22;5938;47.098;15.474;2023-04-02T16:25:59;13.30;81.80
11762;DHT22;5938;47.098;15.474;2023-04-02T16:30:28;13.10;80.90
11762;DHT22;5938;47.098;15.474;2023-04-02T16:34:42;12.90;81.20
11762;DHT22;5938;47.098;15.474;2023-04-02T16:38:57;12.70;81.20
11762;DHT22;5938;47.098;15.474;2023-04-02T16:43:12;12.60;80.90
11762;DHT22;5938;47.098;15.474;2023-04-02T16:47:43;12.50;81.90
11762;DHT22;5938;47.098;15.474;2023-04-02T16:52:07;12.40;83.30
11762;DHT22;5938;47.098;15.474;2023-04-02T16:56:35;12.20;84.50
11762;DHT22;5938;47.098;15.474;2023-04-02T17:00:48;12.00;84.40
11762;DHT22;5938;47.098;15.474;2023-04-02T17:05:15;12.00;84.30
11762;DHT22;5938;47.098;15.474;2023-04-02T17:09:31;11.90;84.30
11762;DHT22;5938;47.098;15.474;2023-04-02T17:13:40;11.80;85.50
11762;DHT22;5938;47.098;15.474;2023-04-02T17:17:44;11.80;84.20
11762;DHT22;5938;47.098;15.474;2023-04-02T17:21:55;11.60;86.70
11762;DHT22;5938;47.098;15.474;2023-04-02T17:26:06;11.60;85.70
11762;DHT22;5938;47.098;15.474;2023-04-02T17:30:16;11.50;86.70
11762;DHT22;5938;47.098;15.474;2023-04-02T17:34:22;11.40;88.10
11762;DHT22;5938;47.098;15.474;2023-04-02T17:38:33;11.30;89.60
11762;DHT22;5938;47.098;15.474;2023-04-02T17:42:48;11.20;90.20
11762;DHT22;5938;47.098;15.474;2023-04-02T17:47:00;11.10;88.00
11762;DHT22;5938;47.098;15.474;2023-04-02T17:51:13;11.00;90.00
11762;DHT22;5938;47.098;15.474;2023-04-02T17:55:31;10.90;88.30
11762;DHT22;5938;47.098;15.474;2023-04-02T17:59:59;10.80;88.00
11762;DHT22;5938;47.098;15.474;2023-04-02T18:04:17;10.80;87.70
11762;DHT22;5938;47.098;15.474;2023-04-02T18:08:30;10.70;87.20
11762;DHT22;5938;47.098;15.474;2023-04-02T18:12:54;10.60;87.10
11762;DHT22;5938;47.098;15.474;2023-04-02T18:17:09;10.60;86.70
11762;DHT22;5938;47.098;15.474;2023-04-02T18:21:27;10.50;87.70
11762;DHT22;5938;47.098;15.474;2023-04-02T18:25:44;10.40;87.90
11762;DHT22;5938;47.098;15.474;2023-04-02T18:30:06;10.20;88.30
11762;DHT22;5938;47.098;15.474;2023-04-02T18:34:43;10.20;88.00
11762;DHT22;5938;47.098;15.474;2023-04-02T18:38:55;10.10;87.90
11762;DHT22;5938;47.098;15.474;2023-04-02T18:43:16;10.10;88.80
11762;DHT22;5938;47.098;15.474;2023-04-02T18:47:37;10.10;87.80
11762;DHT22;5938;47.098;15.474;2023-04-02T18:51:51;10.10;88.00
11762;DHT22;5938;47.098;15.474;2023-04-02T18:56:05;10.00;87.50
11762;DHT22;5938;47.098;15.474;2023-04-02T19:00:20;10.00;87.70
11762;DHT22;5938;47.098;15.474;2023-04-02T19:04:30;10.00;86.30
11762;DHT22;5938;47.098;15.474;2023-04-02T19:08:40;10.10;86.40
11762;DHT22;5938;47.098;15.474;2023-04-02T19:12:51;10.00;86.60
11762;DHT22;5938;47.098;15.474;2023-04-02T19:17:01;9.90;87.40
11762;DHT22;5938;47.098;15.474;2023-04-02T19:21:23;9.90;87.60
11762;DHT22;5938;47.098;15.474;2023-04-02T19:25:42;9.90;87.30
11762;DHT22;5938;47.098;15.474;2023-04-02T19:29:58;9.80;87.80
11762;DHT22;5938;47.098;15.474;2023-04-02T19:34:15;9.70;87.80
11762;DHT22;5938;47.098;15.474;2023-04-02T19:38:47;9.70;88.90
11762;DHT22;5938;47.098;15.474;2023-04-02T19:42:58;9.60;88.10
11762;DHT22;5938;47.098;15.474;2023-04-02T19:47:12;9.50;88.90
11762;DHT22;5938;47.098;15.474;2023-04-02T19:51:21;9.50;89.00
11762;DHT22;5938;47.098;15.474;2023-04-02T19:55:28;9.40;89.10
11762;DHT22;5938;47.098;15.474;2023-04-02T19:59:34;9.30;89.70
11762;DHT22;5938;47.098;15.474;2023-04-02T20:03:44;9.20;89.40
11762;DHT22;5938;47.098;15.474;2023-04-02T20:07:49;9.10;90.00
11762;DHT22;5938;47.098;15.474;2023-04-02T20:11:57;9.10;90.00
11762;DHT22;5938;47.098;15.474;2023-04-02T20:16:04;8.90;90.50
11762;DHT22;5938;47.098;15.474;2023-04-02T20:20:12;8.70;91.00
11762;DHT22;5938;47.098;15.474;2023-04-02T20:24:18;8.70;91.00
11762;DHT22;5938;47.098;15.474;2023-04-02T20:28:27;8.80;90.80
11762;DHT22;5938;47.098;15.474;2023-04-02T20:32:32;8.80;90.70
11762;DHT22;5938;47.098;15.474;2023-04-02T20:36:40;8.80;90.70
11762;DHT22;5938;47.098;15.474;2023-04-02T20:40:46;8.90;90.50
11762;DHT22;5938;47.098;15.474;2023-04-02T20:44:58;8.90;90.70
11762;DHT22;5938;47.098;15.474;2023-04-02T20:49:03;8.80;90.80
11762;DHT22;5938;47.098;15.474;2023-04-02T20:53:07;8.80;91.20
11762;DHT22;5938;47.098;15.474;2023-04-02T20:57:10;8.70;91.00
11762;DHT22;5938;47.098;15.474;2023-04-02T21:01:19;8.60;90.90
11762;DHT22;5938;47.098;15.474;2023-04-02T21:05:23;8.60;90.90
11762;DHT22;5938;47.098;15.474;2023-04-02T21:09:26;8.40;90.90
11762;DHT22;5938;47.098;15.474;2023-04-02T21:13:30;8.30;91.20
11762;DHT22;5938;47.098;15.474;2023-04-02T21:17:35;8.20;91.30
11762;DHT22;5938;47.098;15.474;2023-04-02T21:21:39;8.10;90.70
11762;DHT22;5938;47.098;15.474;2023-04-02T21:25:54;8.10;91.10
11762;DHT22;5938;47.098;15.474;2023-04-02T21:29:57;8.00;91.40
11762;DHT22;5938;47.098;15.474;2023-04-02T21:34:02;7.80;91.30
11762;DHT22;5938;47.098;15.474;2023-04-02T21:38:06;7.60;91.60
11762;DHT22;5938;47.098;15.474;2023-04-02T21:42:10;7.50;91.70
11762;DHT22;5938;47.098;15.474;2023-04-02T21:46:15;7.40;91.60
11762;DHT22;5938;47.098;15.474;2023-04-02T21:50:20;7.30;91.80
11762;DHT22;5938;47.098;15.474;2023-04-02T21:54:23;7.20;91.60
11762;DHT22;5938;47.098;15.474;2023-04-02T21:58:27;7.10;91.50
11762;DHT22;5938;47.098;15.474;2023-04-02T22:02:30;6.90;91.90
11762;DHT22;5938;47.098;15.474;2023-04-02T22:06:38;6.70;92.10
11762;DHT22;5938;47.098;15.474;2023-04-02T22:10:41;6.50;92.10
11762;DHT22;5938;47.098;15.474;2023-04-02T22:14:45;6.30;92.60
11762;DHT22;5938;47.098;15.474;2023-04-02T22:18:49;6.30;92.50
11762;DHT22;5938;47.098;15.474;2023-04-02T22:22:54;6.10;92.50
11762;DHT22;5938;47.098;15.474;2023-04-02T22:26:58;6.00;92.50
11762;DHT22;5938;47.098;15.474;2023-04-02T22:31:03;5.70;93.40
11762;DHT22;5938;47.098;15.474;2023-04-02T22:35:08;5.50;94.10
11762;DHT22;5938;47.098;15.474;2023-04-02T22:39:13;5.40;94.80
11762;DHT22;5938;47.098;15.474;2023-04-02T22:43:17;5.10;95.50
11762;DHT22;5938;47.098;15.474;2023-04-02T22:47:21;4.90;96.10
11762;DHT22;5938;47.098;15.474;2023-04-02T22:51:25;4.70;96.10
11762;DHT22;5938;47.098;15.474;2023-04-02T22:55:30;4.50;96.00
11762;DHT22;5938;47.098;15.474;2023-04-02T22:59:34;4.50;95.40
11762;DHT22;5938;47.098;15.474;2023-04-02T23:03:37;4.50;94.90
11762;DHT22;5938;47.098;15.474;2023-04-02T23:07:41;4.50;94.40
11762;DHT22;5938;47.098;15.474;2023-04-02T23:11:45;4.80;93.40
11762;DHT22;5938;47.098;15.474;2023-04-02T23:15:49;5.00;92.40
11762;DHT22;5938;47.098;15.474;2023-04-02T23:19:52;4.90;92.20
11762;DHT22;5938;47.098;15.474;2023-04-02T23:23:56;4.90;91.90
11762;DHT22;5938;47.098;15.474;2023-04-02T23:28:00;4.90;91.70
11762;DHT22;5938;47.098;15.474;2023-04-02T23:32:04;4.80;91.60
11762;DHT22;5938;47.098;15.474;2023-04-02T23:36:08;4.60;91.80
11762;DHT22;5938;47.098;15.474;2023-04-02T23:40:12;4.50;92.50
11762;DHT22;5938;47.098;15.474;2023-04-02T23:44:17;4.40;92.50
11762;DHT22;5938;47.098;15.474;2023-04-02T23:48:21;4.40;92.00
11762;DHT22;5938;47.098;15.474;2023-04-02T23:52:24;4.20;92.60
11762;DHT22;5938;47.098;15.474;2023-04-02T23:56:27;4.10;93.50
